createdAt,value
2019-05-25T08:54:42.130Z,26.90
2019-05-25T08:57:14.904Z,27.70
2019-05-25T08:59:41.093Z,27.60
2019-05-25T09:02:09.599Z,27.30
2019-05-25T09:04:38.062Z,26.00
2019-05-25T09:07:06.506Z,25.90
2019-05-25T09:09:34.930Z,24.90
2019-05-25T09:12:03.426Z,25.20
2019-05-25T09:14:31.915Z,23.60
2019-05-25T09:17:00.344Z,25.70
2019-05-25T09:19:28.836Z,24.50
2019-05-25T09:22:02.419Z,24.60
2019-05-25T09:24:27.413Z,25.80
2019-05-25T09:26:55.851Z,27.20
2019-05-25T09:29:24.272Z,27.60
2019-05-25T09:31:52.698Z,27.10
2019-05-25T09:34:21.131Z,26.10
2019-05-25T09:36:49.591Z,25.80
2019-05-25T09:39:18.055Z,26.70
2019-05-25T09:41:46.518Z,25.30
2019-05-25T09:44:14.934Z,25.70
2019-05-25T09:46:43.363Z,25.50
2019-05-25T09:49:11.787Z,23.90
2019-05-25T09:51:40.293Z,24.50
2019-05-25T09:54:08.698Z,25.00
2019-05-25T09:56:37.122Z,24.90
2019-05-25T09:59:19.190Z,25.40
2019-05-25T10:01:35.837Z,25.60
2019-05-25T10:04:04.255Z,25.80
2019-05-25T10:06:32.688Z,24.90
2019-05-25T10:09:01.111Z,24.30
2019-05-25T10:11:29.573Z,23.40
2019-05-25T10:13:57.987Z,24.80
2019-05-25T10:16:26.416Z,25.90
2019-05-25T10:18:54.831Z,26.20
2019-05-25T10:21:23.255Z,28.20
2019-05-25T10:23:51.673Z,28.90
2019-05-25T10:26:22.893Z,29.80
2019-05-25T10:28:50.259Z,32.20
2019-05-25T10:31:18.691Z,35.70
2019-05-25T10:33:47.117Z,35.70
2019-05-25T10:36:15.547Z,35.10
2019-05-25T10:38:44.052Z,35.80
2019-05-25T10:41:12.546Z,36.40
2019-05-25T10:43:40.963Z,37.80
